Terminal Aerodrome Forecast
Issued by NWS

Home | Current Version | Previous Version | Text Only | Print | Product List | Glossary On
Versions: 1 2 3 4 5 6 7 8 9 10 11 12 13 14 15 16 17 18 19 20 21 22 23 24 25 26 27 28 29 30 31 32 33 34 35 36 37 38 39
000
FTAK31 PANC 292332
TAFACD
TAF
PACD 292332Z 3000/3024 VRB05KT P6SM VCSH BKN020 OVC030
      TEMPO 3000/3004 -SHRA BKN020 OVC025
     FM300800 23008KT P6SM -SHRA BKN014 OVC025
     FM301200 28008KT P6SM -SHRA BKN012 OVC020
     FM302000 33008KT P6SM VCSH SCT012 BKN025=

USA.gov is the U.S. government's official web portal to all federal, state and local government web resources and services.